Templeton, Massachusetts
Current Conditions -  °F | °C
As of 10:24 PM on Wednesday 22 Oct 2014 (Local Time) from KORE Reporting Station
Overcast Overcast  
Wind Chill: 41°   Ceiling: 1500
Heat Index: 48°   Visibility: 10mi
Dew Point: 45°   Wind: 20mph
Humidity: 89%   Direction: 10°N
Pressure: 29.87"   Gusts: 28mph
Location:  42.56°N, 72.07°W
Report Text: KORE 230224Z AUTO 01017G24KT 10SM OVC015 09/07 A2987 RMK AO2 LTG DSNT S T00890072
Loading
Personal Weather Stations






























Interactive Weather Map
Tropical Storm Tracking
New forecast layout! Learn more

10-Day Weather Forecast

Advertisements
Track Severe Weather on mobile